Time;durP1;ratioP1;P1;durP2;ratioP2;P2;SDS_P1;SDS_P2;PMS_P1;PMS_P2;Temp;Humidity;BMP_temperature;BMP_pressure;BME280_temperature;BME280_humidity;BME280_pressure;Samples;Min_cycle;Max_cycle;Signal;HPM_P1;HPM_P2
2023/07/29 00:01:54;;;;;;;1012.70;792.25;;;17.70;82.20;;;;;;6222921;22;20024;-89
2023/07/29 00:04:20;;;;;;;929.03;774.88;;;17.80;82.40;;;;;;6221433;22;20024;-89
2023/07/29 00:06:46;;;;;;;984.70;792.88;;;17.80;82.20;;;;;;6216364;22;20102;-90
2023/07/29 00:09:12;;;;;;;1001.78;789.00;;;17.80;82.30;;;;;;6182829;22;20043;-89
2023/07/29 00:11:38;;;;;;;1025.97;805.30;;;17.80;82.30;;;;;;6223399;22;20434;-90
2023/07/29 00:14:04;;;;;;;939.17;777.53;;;17.80;82.30;;;;;;6221237;22;20027;-89
2023/07/29 00:16:29;;;;;;;960.22;779.72;;;17.80;82.20;;;;;;6243446;22;20164;-90
2023/07/29 00:18:55;;;;;;;954.03;770.65;;;17.80;82.20;;;;;;6217545;22;20023;-89
2023/07/29 00:21:21;;;;;;;954.83;769.45;;;17.80;82.20;;;;;;6222833;22;20020;-89
2023/07/29 00:23:47;;;;;;;1010.88;806.60;;;17.80;82.20;;;;;;6221207;22;20069;-89
2023/07/29 00:26:13;;;;;;;1000.45;791.92;;;17.80;82.10;;;;;;6241401;23;20048;-91
2023/07/29 00:28:41;;;;;;;998.25;795.63;;;17.80;82.10;;;;;;6233507;22;20016;-89
2023/07/29 00:31:06;;;;;;;946.17;775.38;;;17.80;82.10;;;;;;6248883;22;20023;-89
2023/07/29 00:33:32;;;;;;;950.38;766.10;;;17.70;82.00;;;;;;6221499;22;20023;-90
2023/07/29 00:36:02;;;;;;;959.53;793.17;;;17.80;82.10;;;;;;6222356;22;20020;-89
2023/07/29 00:38:28;;;;;;;982.97;797.53;;;17.80;82.10;;;;;;6214877;22;20016;-89
2023/07/29 00:40:57;;;;;;;981.45;794.13;;;17.70;82.20;;;;;;6247392;22;20058;-89
2023/07/29 00:43:22;;;;;;;977.13;790.05;;;17.70;82.10;;;;;;6247380;22;20016;-89
2023/07/29 00:45:48;;;;;;;976.17;784.95;;;17.70;82.10;;;;;;6222535;22;20055;-89
2023/07/29 00:48:14;;;;;;;912.92;795.00;;;17.70;82.10;;;;;;6212945;22;20020;-89
2023/07/29 00:50:40;;;;;;;1008.45;800.38;;;17.60;82.10;;;;;;6222862;22;20019;-89
2023/07/29 00:53:06;;;;;;;975.80;791.30;;;17.60;82.10;;;;;;6221658;22;20020;-89
2023/07/29 00:55:32;;;;;;;1019.25;803.58;;;17.60;82.10;;;;;;6222424;22;20078;-89
2023/07/29 00:57:58;;;;;;;985.88;787.65;;;17.60;82.20;;;;;;6238579;22;20008;-89
2023/07/29 01:00:24;;;;;;;993.17;790.10;;;17.60;82.20;;;;;;6247714;22;20045;-90
2023/07/29 01:02:52;;;;;;;1008.50;800.28;;;17.60;82.30;;;;;;6246576;22;20007;-89
2023/07/29 01:05:18;;;;;;;953.20;767.15;;;17.60;82.30;;;;;;6247667;22;20505;-89
2023/07/29 01:08:05;;;;;;;924.83;775.45;;;17.60;82.40;;;;;;6213130;22;20074;-89
2023/07/29 01:10:46;;;;;;;971.83;786.47;;;17.60;82.50;;;;;;6247743;22;20095;-90
2023/07/29 01:13:12;;;;;;;730.85;666.45;;;17.60;82.60;;;;;;6221046;22;20020;-89
2023/07/29 01:15:37;;;;;;;766.20;695.75;;;17.50;82.60;;;;;;6221987;22;20022;-90
2023/07/29 01:18:11;;;;;;;1003.35;801.28;;;17.50;82.60;;;;;;6214118;22;20167;-89
2023/07/29 01:20:40;;;;;;;950.67;771.55;;;17.50;82.70;;;;;;6222185;22;20114;-90
2023/07/29 01:23:06;;;;;;;958.42;768.70;;;17.50;82.70;;;;;;6246323;22;20042;-90
2023/07/29 01:25:31;;;;;;;935.83;768.38;;;17.50;82.80;;;;;;6272933;22;20019;-89
2023/07/29 01:27:58;;;;;;;907.95;761.05;;;17.50;82.80;;;;;;6237953;22;20015;-90
2023/07/29 01:30:36;;;;;;;985.63;787.97;;;17.50;82.80;;;;;;6222000;22;20016;-89
2023/07/29 01:33:14;;;;;;;828.90;722.03;;;17.50;82.80;;;;;;6221140;22;20008;-89
2023/07/29 01:35:50;;;;;;;856.03;743.15;;;17.40;82.80;;;;;;6222394;22;20016;-90
2023/07/29 01:38:33;;;;;;;880.83;753.33;;;17.40;82.80;;;;;;6214404;22;20480;-90
2023/07/29 01:41:01;;;;;;;836.45;746.65;;;17.40;82.80;;;;;;6222300;22;20015;-90
2023/07/29 01:43:28;;;;;;;890.97;748.67;;;17.30;82.80;;;;;;6232986;23;20058;-90
2023/07/29 01:45:54;;;;;;;934.83;764.92;;;17.30;82.90;;;;;;6215644;22;20027;-90
2023/07/29 01:48:20;;;;;;;898.70;754.45;;;17.30;82.90;;;;;;6237968;22;20015;-90
2023/07/29 01:50:46;;;;;;;845.33;732.22;;;17.20;82.90;;;;;;6222092;22;20469;-90
2023/07/29 01:53:12;;;;;;;973.58;788.92;;;17.20;83.00;;;;;;6221606;22;20020;-89
2023/07/29 01:55:38;;;;;;;854.38;739.38;;;17.20;83.00;;;;;;6217593;23;20343;-89
2023/07/29 01:58:05;;;;;;;853.53;733.60;;;17.20;83.00;;;;;;6237497;22;20451;-90
2023/07/29 02:00:30;;;;;;;899.67;755.08;;;17.10;83.10;;;;;;6222424;22;20064;-90
2023/07/29 02:02:56;;;;;;;887.95;748.03;;;17.00;83.10;;;;;;6221186;22;20019;-90
2023/07/29 02:05:22;;;;;;;855.50;733.70;;;17.00;83.10;;;;;;6221985;22;20031;-89
2023/07/29 02:07:48;;;;;;;855.75;718.08;;;17.00;83.10;;;;;;6212936;22;20011;-89
2023/07/29 02:10:14;;;;;;;789.53;696.25;;;17.00;83.20;;;;;;6222299;22;20339;-89
2023/07/29 02:12:39;;;;;;;883.83;737.78;;;17.00;83.20;;;;;;6219980;22;20030;-90
2023/07/29 02:15:06;;;;;;;831.00;721.70;;;17.00;83.20;;;;;;6196919;22;20020;-89
2023/07/29 02:17:32;;;;;;;898.63;739.35;;;16.90;83.20;;;;;;6238226;22;20478;-90
2023/07/29 02:19:58;;;;;;;909.00;742.97;;;16.90;83.30;;;;;;6223057;22;20022;-89
2023/07/29 02:22:26;;;;;;;773.28;689.28;;;16.90;83.40;;;;;;6220702;22;20099;-90
2023/07/29 02:24:52;;;;;;;758.45;674.22;;;16.80;83.40;;;;;;6219284;22;20016;-89
2023/07/29 02:27:17;;;;;;;703.53;646.72;;;16.80;83.40;;;;;;6189451;22;20031;-90
2023/07/29 02:29:43;;;;;;;753.95;683.05;;;16.80;83.40;;;;;;6224103;22;20015;-90
2023/07/29 02:32:09;;;;;;;741.78;662.75;;;16.80;83.40;;;;;;6247698;22;20053;-89
2023/07/29 02:34:38;;;;;;;749.35;669.67;;;16.80;83.50;;;;;;6223270;22;20012;-89
2023/07/29 02:37:04;;;;;;;799.88;706.72;;;16.80;83.50;;;;;;6239489;22;20015;-90
2023/07/29 02:39:31;;;;;;;777.08;689.63;;;16.70;83.60;;;;;;6221787;22;20020;-89
2023/07/29 02:41:58;;;;;;;782.20;682.10;;;16.70;83.50;;;;;;6197008;22;20012;-90
2023/07/29 02:44:24;;;;;;;747.47;676.92;;;16.70;83.50;;;;;;6245630;22;20042;-90
2023/07/29 02:46:52;;;;;;;713.22;655.53;;;16.60;83.60;;;;;;6213588;22;20095;-90
2023/07/29 02:49:18;;;;;;;778.90;695.40;;;16.60;83.60;;;;;;6245450;22;20087;-90
2023/07/29 02:51:43;;;;;;;748.78;669.90;;;16.60;83.60;;;;;;6221750;22;20054;-90
2023/07/29 02:54:09;;;;;;;742.17;663.08;;;16.60;83.60;;;;;;6195631;22;20337;-89
2023/07/29 02:56:35;;;;;;;704.40;634.72;;;16.60;83.70;;;;;;6216029;22;20321;-92
2023/07/29 02:59:01;;;;;;;757.45;674.47;;;16.50;83.60;;;;;;6193459;22;20377;-89
2023/07/29 03:01:27;;;;;;;726.92;651.28;;;16.50;83.70;;;;;;6221592;22;20051;-89
2023/07/29 03:03:53;;;;;;;745.38;668.65;;;16.50;83.70;;;;;;6220021;22;20363;-90
2023/07/29 03:06:18;;;;;;;698.38;629.17;;;16.50;83.70;;;;;;6244285;22;20012;-90
2023/07/29 03:08:44;;;;;;;776.83;688.92;;;16.50;83.70;;;;;;6239710;22;20574;-90
2023/07/29 03:11:13;;;;;;;800.10;709.90;;;16.50;83.70;;;;;;6221856;22;20023;-89
2023/07/29 03:13:39;;;;;;;746.63;669.47;;;16.40;83.70;;;;;;6219823;22;20104;-89
2023/07/29 03:16:13;;;;;;;688.70;622.28;;;16.40;83.90;;;;;;6197274;22;20462;-90
2023/07/29 03:18:40;;;;;;;677.47;610.42;;;16.40;83.80;;;;;;6213571;22;20020;-90
2023/07/29 03:21:06;;;;;;;714.75;642.88;;;16.40;83.80;;;;;;6221700;22;20458;-90
2023/07/29 03:23:33;;;;;;;717.42;644.30;;;16.40;83.80;;;;;;6219244;22;20095;-90
2023/07/29 03:26:04;;;;;;;750.72;672.03;;;16.40;83.80;;;;;;6166758;23;20508;-88
2023/07/29 03:28:32;;;;;;;653.40;591.20;;;16.30;83.90;;;;;;6175849;23;20020;-90
2023/07/29 03:30:58;;;;;;;685.70;618.70;;;16.30;83.90;;;;;;6161571;23;20020;-90
2023/07/29 03:33:26;;;;;;;675.30;608.47;;;16.20;83.80;;;;;;6134910;23;20492;-89
2023/07/29 03:35:52;;;;;;;662.72;598.38;;;16.20;83.80;;;;;;6162016;23;20013;-89
2023/07/29 03:38:18;;;;;;;684.72;618.55;;;16.20;83.80;;;;;;6153922;23;20027;-90
2023/07/29 03:40:44;;;;;;;698.90;629.85;;;16.20;83.80;;;;;;6161387;23;20016;-90
2023/07/29 03:43:10;;;;;;;683.78;615.75;;;16.10;83.80;;;;;;6159674;23;20013;-90
2023/07/29 03:45:36;;;;;;;662.05;597.42;;;16.10;83.80;;;;;;6137106;23;20021;-89
2023/07/29 03:48:05;;;;;;;650.13;588.17;;;16.10;83.80;;;;;;6127955;23;20055;-88
2023/07/29 03:50:37;;;;;;;658.45;604.70;;;16.10;83.80;;;;;;6186574;23;20024;-88
2023/07/29 03:53:04;;;;;;;671.25;607.65;;;16.10;83.80;;;;;;6159486;23;20095;-89
2023/07/29 03:55:30;;;;;;;646.15;586.85;;;16.00;83.80;;;;;;6186391;23;20013;-89
2023/07/29 03:58:00;;;;;;;628.72;571.13;;;16.00;83.90;;;;;;6151762;23;20028;-88
2023/07/29 04:00:26;;;;;;;641.08;581.95;;;16.00;83.80;;;;;;6160986;23;20074;-89
2023/07/29 04:02:52;;;;;;;638.55;579.85;;;16.00;83.80;;;;;;6159651;23;20021;-88
2023/07/29 04:05:18;;;;;;;614.92;558.63;;;16.00;83.90;;;;;;6162095;23;20023;-88
2023/07/29 04:07:45;;;;;;;640.80;581.17;;;16.00;83.90;;;;;;6175873;23;20394;-87
2023/07/29 04:10:10;;;;;;;607.78;553.17;;;16.00;83.90;;;;;;6161461;23;20052;-88
2023/07/29 04:12:36;;;;;;;621.85;565.35;;;16.00;83.90;;;;;;6160513;23;20031;-88
2023/07/29 04:15:03;;;;;;;644.15;584.50;;;15.90;84.00;;;;;;6188297;23;20020;-88
2023/07/29 04:17:29;;;;;;;635.90;577.45;;;15.90;84.00;;;;;;6153782;23;20020;-88
2023/07/29 04:19:55;;;;;;;624.60;568.55;;;15.90;84.00;;;;;;6138726;23;20023;-88
2023/07/29 04:22:23;;;;;;;623.35;567.05;;;15.90;84.10;;;;;;6186585;23;20090;-88
2023/07/29 04:24:48;;;;;;;658.33;597.85;;;15.80;84.10;;;;;;6162679;23;20026;-88
2023/07/29 04:27:14;;;;;;;623.22;567.65;;;15.90;84.10;;;;;;6194296;23;20094;-88
2023/07/29 04:29:40;;;;;;;638.10;580.92;;;15.90;84.10;;;;;;6217164;23;20020;-88
2023/07/29 04:32:06;;;;;;;652.00;592.55;;;15.90;84.20;;;;;;6241825;22;20024;-88
2023/07/29 04:34:32;;;;;;;641.67;583.33;;;16.00;84.10;;;;;;6217644;23;20470;-88
2023/07/29 04:36:58;;;;;;;629.75;573.30;;;16.00;84.10;;;;;;6209771;23;20016;-88
2023/07/29 04:39:24;;;;;;;649.10;590.78;;;16.00;84.10;;;;;;6217367;23;20035;-88
2023/07/29 04:41:49;;;;;;;631.08;576.00;;;16.00;84.00;;;;;;6192752;23;20016;-88
2023/07/29 04:44:15;;;;;;;638.53;580.92;;;16.00;84.10;;;;;;6216226;23;20512;-88
2023/07/29 04:46:41;;;;;;;632.72;576.92;;;16.00;84.10;;;;;;6185593;23;20334;-88
2023/07/29 04:49:07;;;;;;;626.00;571.40;;;16.00;84.00;;;;;;6164116;23;20043;-89
2023/07/29 04:51:33;;;;;;;611.15;557.92;;;16.00;84.00;;;;;;6218102;23;20020;-88
2023/07/29 04:53:59;;;;;;;634.20;580.33;;;16.00;84.00;;;;;;6190598;23;20027;-88
2023/07/29 04:56:25;;;;;;;652.00;593.83;;;16.00;84.10;;;;;;6213560;23;20012;-89
2023/07/29 04:58:51;;;;;;;627.15;569.90;;;16.10;84.00;;;;;;6186837;23;20082;-87
2023/07/29 05:01:17;;;;;;;637.03;580.53;;;16.10;84.00;;;;;;6192335;23;20028;-88
2023/07/29 05:03:42;;;;;;;618.05;562.80;;;16.10;84.00;;;;;;6216243;23;20021;-88
2023/07/29 05:06:08;;;;;;;656.35;595.95;;;16.10;84.10;;;;;;6216749;23;20012;-89
2023/07/29 05:08:34;;;;;;;655.13;593.92;;;16.10;84.00;;;;;;6208690;23;20062;-88
2023/07/29 05:11:00;;;;;;;679.90;624.80;;;16.10;84.00;;;;;;6187829;23;20099;-88
2023/07/29 05:13:26;;;;;;;650.28;590.40;;;16.20;84.00;;;;;;6186028;23;20435;-88
2023/07/29 05:15:52;;;;;;;649.10;588.30;;;16.20;84.00;;;;;;6213508;23;20078;-88
2023/07/29 05:18:18;;;;;;;636.17;580.00;;;16.20;84.00;;;;;;6179781;23;20027;-88
2023/07/29 05:20:44;;;;;;;627.58;570.67;;;16.20;84.00;;;;;;6214853;23;20016;-88
2023/07/29 05:23:10;;;;;;;666.25;604.53;;;16.20;84.00;;;;;;6214072;23;20056;-87
2023/07/29 05:25:36;;;;;;;660.83;600.22;;;16.20;84.00;;;;;;6190886;23;20101;-88
2023/07/29 05:28:02;;;;;;;656.60;596.67;;;16.20;84.00;;;;;;6204328;23;20036;-87
2023/07/29 05:30:31;;;;;;;633.20;575.58;;;16.20;84.00;;;;;;6213287;23;20031;-88
2023/07/29 05:32:57;;;;;;;668.17;605.95;;;16.30;84.00;;;;;;6187554;23;20024;-88
2023/07/29 05:35:23;;;;;;;635.65;579.03;;;16.30;84.00;;;;;;6213717;23;20030;-88
2023/07/29 05:37:49;;;;;;;670.60;609.35;;;16.30;84.00;;;;;;6207984;23;20422;-88
2023/07/29 05:40:15;;;;;;;653.20;593.03;;;16.30;83.90;;;;;;6217263;23;20024;-88
2023/07/29 05:42:41;;;;;;;654.50;594.22;;;16.40;83.90;;;;;;6190319;23;20016;-87
2023/07/29 05:45:07;;;;;;;642.78;584.83;;;16.40;83.90;;;;;;6167546;23;20020;-88
2023/07/29 05:47:33;;;;;;;698.17;630.17;;;16.40;84.00;;;;;;6207246;23;20016;-88
2023/07/29 05:50:01;;;;;;;658.10;597.22;;;16.40;83.90;;;;;;6216814;23;20378;-88
2023/07/29 05:52:27;;;;;;;669.78;605.65;;;16.40;83.80;;;;;;6215852;23;20031;-88
2023/07/29 05:54:53;;;;;;;691.42;636.72;;;16.40;83.90;;;;;;6214475;23;20098;-88
2023/07/29 05:57:19;;;;;;;679.08;613.30;;;16.40;83.80;;;;;;6182279;23;20020;-88
2023/07/29 05:59:44;;;;;;;693.05;637.95;;;16.50;83.70;;;;;;6215804;23;20024;-88
2023/07/29 06:02:10;;;;;;;721.03;646.20;;;16.50;83.60;;;;;;6190262;23;20058;-88
2023/07/29 06:04:36;;;;;;;705.17;634.35;;;16.50;83.60;;;;;;6191017;23;20059;-87
2023/07/29 06:07:02;;;;;;;719.75;646.22;;;16.50;83.50;;;;;;6184048;23;20023;-87
2023/07/29 06:09:28;;;;;;;719.05;647.08;;;16.50;83.50;;;;;;6214554;23;20074;-87
2023/07/29 06:11:54;;;;;;;696.38;629.38;;;16.60;83.40;;;;;;6191685;23;20024;-87
2023/07/29 06:14:20;;;;;;;699.17;628.00;;;16.60;83.40;;;;;;6215317;23;20493;-88
2023/07/29 06:16:46;;;;;;;697.70;627.30;;;16.60;83.40;;;;;;6184864;23;20012;-89
2023/07/29 06:19:13;;;;;;;692.83;622.50;;;16.60;83.30;;;;;;6214118;23;20020;-88
2023/07/29 06:21:38;;;;;;;717.30;643.67;;;16.70;83.30;;;;;;6217353;23;20016;-88
2023/07/29 06:24:04;;;;;;;682.15;613.97;;;16.70;83.30;;;;;;6215503;23;20020;-88
2023/07/29 06:26:30;;;;;;;755.53;666.65;;;16.70;83.20;;;;;;6186303;23;20532;-88
2023/07/29 06:28:56;;;;;;;705.20;633.00;;;16.80;83.30;;;;;;6237926;23;20046;-89
2023/07/29 06:31:22;;;;;;;755.03;672.20;;;16.90;83.10;;;;;;6191667;23;20055;-88
2023/07/29 06:33:48;;;;;;;678.83;624.10;;;17.00;83.00;;;;;;6189646;23;20020;-88
2023/07/29 06:36:14;;;;;;;773.22;681.55;;;17.00;82.90;;;;;;6189566;23;20099;-88
2023/07/29 06:38:40;;;;;;;780.17;693.72;;;17.20;82.70;;;;;;6207247;23;20095;-89
2023/07/29 06:41:06;;;;;;;808.80;704.90;;;17.20;82.60;;;;;;6188550;23;20336;-89
2023/07/29 06:43:32;;;;;;;815.17;703.60;;;17.20;82.60;;;;;;6188090;23;20035;-90
2023/07/29 06:45:58;;;;;;;788.30;693.13;;;17.30;82.50;;;;;;6213055;23;20017;-90
2023/07/29 06:48:24;;;;;;;878.50;741.45;;;17.30;82.40;;;;;;6179276;23;20027;-89
2023/07/29 06:50:50;;;;;;;867.53;732.05;;;17.40;82.20;;;;;;6190603;23;20016;-89
2023/07/29 06:53:16;;;;;;;806.28;703.63;;;17.40;82.10;;;;;;6189814;23;20024;-88
2023/07/29 06:55:43;;;;;;;784.65;692.17;;;17.40;82.20;;;;;;6191067;23;20019;-89
2023/07/29 06:58:10;;;;;;;688.15;630.92;;;17.40;82.10;;;;;;6204908;23;20019;-89
2023/07/29 07:00:56;;;;;;;710.03;650.05;;;17.50;81.80;;;;;;6215608;23;20070;-89
2023/07/29 07:03:22;;;;;;;703.60;644.40;;;17.50;82.00;;;;;;6188949;23;20028;-90
2023/07/29 07:05:48;;;;;;;826.45;712.50;;;17.50;82.10;;;;;;6216053;23;20316;-88
2023/07/29 07:08:14;;;;;;;897.50;731.40;;;17.50;81.90;;;;;;6206112;23;20094;-89
2023/07/29 07:10:43;;;;;;;823.15;711.67;;;17.60;82.00;;;;;;6215833;23;20087;-89
2023/07/29 07:13:08;;;;;;;763.58;680.05;;;17.60;81.90;;;;;;6213265;23;20031;-88
2023/07/29 07:15:34;;;;;;;869.60;730.63;;;17.70;81.50;;;;;;6190251;23;20091;-89
2023/07/29 07:18:00;;;;;;;580.05;538.78;;;17.80;81.60;;;;;;6205234;23;20058;-90
2023/07/29 07:20:26;;;;;;;694.25;635.08;;;17.80;81.60;;;;;;6187766;23;20378;-90
2023/07/29 07:22:52;;;;;;;847.45;719.50;;;17.80;81.40;;;;;;6188277;23;20024;-89
2023/07/29 07:25:17;;;;;;;766.20;682.50;;;17.80;81.30;;;;;;6241491;23;20012;-89
2023/07/29 07:27:43;;;;;;;943.17;743.78;;;17.80;81.30;;;;;;6205086;23;20142;-90
2023/07/29 07:30:09;;;;;;;854.63;724.40;;;17.80;81.30;;;;;;6241862;23;20020;-89
2023/07/29 07:32:36;;;;;;;901.97;741.65;;;17.80;81.30;;;;;;6209606;23;20027;-89
2023/07/29 07:35:02;;;;;;;900.65;742.25;;;17.80;81.20;;;;;;6236569;23;20024;-89
2023/07/29 07:37:28;;;;;;;946.40;755.60;;;17.80;81.10;;;;;;6229032;23;20851;-90
2023/07/29 07:39:53;;;;;;;875.60;726.05;;;17.80;81.40;;;;;;6212295;23;20020;-90
2023/07/29 07:42:19;;;;;;;870.90;731.13;;;17.90;81.40;;;;;;6185729;23;20051;-90
2023/07/29 07:44:45;;;;;;;1034.68;779.20;;;17.90;81.40;;;;;;6187526;23;20024;-88
2023/07/29 07:47:11;;;;;;;883.30;736.60;;;18.00;81.40;;;;;;6205231;23;20016;-89
2023/07/29 07:49:37;;;;;;;910.83;740.95;;;18.00;81.40;;;;;;6187558;23;20027;-90
2023/07/29 07:52:03;;;;;;;1016.17;763.08;;;18.00;81.40;;;;;;6237118;23;20024;-89
2023/07/29 07:54:28;;;;;;;747.10;679.83;;;18.00;81.30;;;;;;6240004;23;20019;-89
2023/07/29 07:56:54;;;;;;;975.95;753.10;;;18.10;81.40;;;;;;6181498;23;20151;-89
2023/07/29 07:59:20;;;;;;;1048.88;774.42;;;18.20;81.00;;;;;;6187758;23;20021;-89
2023/07/29 08:01:46;;;;;;;1151.43;812.70;;;18.30;80.80;;;;;;6188418;23;20016;-90
2023/07/29 08:04:12;;;;;;;1124.00;803.15;;;18.30;80.90;;;;;;6187186;23;20028;-90
2023/07/29 08:06:38;;;;;;;839.50;758.25;;;18.40;80.40;;;;;;6182874;23;20016;-89
2023/07/29 08:09:04;;;;;;;844.30;761.13;;;18.40;80.20;;;;;;6210917;23;20108;-90
2023/07/29 08:11:29;;;;;;;1133.20;803.65;;;18.50;79.90;;;;;;6189189;23;20050;-90
2023/07/29 08:13:55;;;;;;;851.78;765.28;;;18.60;79.60;;;;;;6212483;23;20024;-90
2023/07/29 08:16:24;;;;;;;1157.53;807.90;;;18.60;79.50;;;;;;6185671;23;20016;-90
2023/07/29 08:18:56;;;;;;;1160.20;821.40;;;18.70;79.30;;;;;;6184245;23;20058;-90
2023/07/29 08:21:22;;;;;;;1009.88;770.97;;;18.70;78.40;;;;;;6189466;23;20024;-89
2023/07/29 08:23:48;;;;;;;1025.40;795.17;;;18.70;78.20;;;;;;6212331;23;20031;-90
2023/07/29 08:26:13;;;;;;;1008.10;774.88;;;18.70;78.10;;;;;;6188088;23;20095;-89
2023/07/29 08:28:40;;;;;;;1002.75;787.78;;;18.80;78.10;;;;;;6231188;23;20023;-89
2023/07/29 08:31:06;;;;;;;942.00;765.47;;;18.80;77.90;;;;;;6213671;23;20020;-89
2023/07/29 08:33:33;;;;;;;976.75;784.30;;;18.80;77.50;;;;;;6212431;23;20016;-89
2023/07/29 08:35:59;;;;;;;991.45;782.10;;;18.80;77.30;;;;;;6186367;23;20096;-89
2023/07/29 08:38:25;;;;;;;915.80;818.70;;;18.90;77.30;;;;;;6181350;23;20019;-89
2023/07/29 08:41:05;;;;;;;908.35;812.42;;;18.90;77.20;;;;;;6210978;23;20017;-90
2023/07/29 08:43:32;;;;;;;896.85;805.22;;;19.00;77.30;;;;;;6211234;23;20024;-90
2023/07/29 08:45:59;;;;;;;919.47;822.33;;;19.10;77.20;;;;;;6214536;23;20012;-91
2023/07/29 08:48:41;;;;;;;1218.72;857.70;;;19.20;76.80;;;;;;6203962;23;20039;-89
2023/07/29 08:51:11;;;;;;;1133.47;826.42;;;19.30;76.00;;;;;;6188546;23;20343;-90
2023/07/29 08:53:43;;;;;;;943.25;840.53;;;19.40;76.50;;;;;;6186741;23;20020;-92
2023/07/29 08:56:09;;;;;;;936.92;836.38;;;19.50;76.40;;;;;;6189099;23;20059;-90
2023/07/29 08:58:36;;;;;;;996.95;874.72;;;19.50;76.00;;;;;;6155394;23;20139;-91
2023/07/29 09:01:02;;;;;;;1028.82;893.45;;;19.50;75.50;;;;;;6238126;23;20056;-89
2023/07/29 09:03:27;;;;;;;1102.00;826.38;;;19.50;75.30;;;;;;6188670;23;20089;-89
2023/07/29 09:05:56;;;;;;;1019.00;885.33;;;19.40;75.30;;;;;;6188142;23;20020;-89
2023/07/29 09:08:23;;;;;;;1002.25;887.55;;;19.40;75.40;;;;;;6179121;23;20028;-89
2023/07/29 09:10:49;;;;;;;998.92;886.55;;;19.40;75.40;;;;;;6214114;23;20058;-89
2023/07/29 09:13:15;;;;;;;1089.05;818.15;;;19.40;75.40;;;;;;6211834;23;20354;-88
2023/07/29 09:15:42;;;;;;;1090.60;833.60;;;19.50;75.50;;;;;;6217787;23;20020;-89
2023/07/29 09:18:14;;;;;;;1182.53;837.08;;;19.50;75.10;;;;;;6207710;23;20571;-89
2023/07/29 09:20:41;;;;;;;1134.50;830.03;;;19.70;75.10;;;;;;6192843;23;20442;-90
2023/07/29 09:23:10;;;;;;;1269.60;876.03;;;19.80;74.80;;;;;;6190122;23;20359;-87
2023/07/29 09:25:44;;;;;;;1096.45;814.58;;;19.80;74.50;;;;;;6192734;23;20110;-87
2023/07/29 09:28:12;;;;;;;1112.40;923.08;;;19.80;74.40;;;;;;6158719;23;20020;-87
2023/07/29 09:30:43;;;;;;;1079.70;905.33;;;19.80;74.60;;;;;;6217350;23;20383;-87
2023/07/29 09:33:09;;;;;;;;;;;19.90;74.70;;;;;;6191448;23;20012;-87
2023/07/29 09:35:36;;;;;;;948.80;849.45;;;19.90;74.10;;;;;;6192098;23;19915;-88
2023/07/29 09:38:04;;;;;;;1158.68;868.05;;;20.00;74.80;;;;;;6184052;23;20028;-90
2023/07/29 09:40:41;;;;;;;1091.97;922.67;;;20.00;74.10;;;;;;6192092;23;20469;-88
2023/07/29 09:43:09;;;;;;;1235.95;951.78;;;20.10;74.40;;;;;;6190544;23;20028;-89
2023/07/29 09:45:36;;;;;;;1206.95;940.63;;;20.10;74.30;;;;;;6192266;23;20050;-89
2023/07/29 09:48:09;;;;;;;1218.80;946.70;;;20.30;74.60;;;;;;6206872;23;20013;-89
2023/07/29 09:50:35;;;;;;;1222.45;950.25;;;20.30;74.20;;;;;;6192664;23;20091;-89
2023/07/29 09:53:04;;;;;;;1258.10;860.15;;;20.30;73.50;;;;;;6215371;23;20020;-88
2023/07/29 09:55:33;;;;;;;1397.82;973.22;;;20.30;73.70;;;;;;6216968;23;20023;-88
2023/07/29 09:58:02;;;;;;;1356.13;958.47;;;20.30;73.70;;;;;;6231161;23;20047;-89
2023/07/29 10:00:29;;;;;;;1021.63;803.45;;;20.40;73.60;;;;;;6217199;23;20048;-89
2023/07/29 10:02:56;;;;;;;1235.05;902.80;;;20.30;73.40;;;;;;6189560;23;20020;-89
2023/07/29 10:05:25;;;;;;;1283.05;938.60;;;20.40;73.30;;;;;;6192749;23;20024;-91
2023/07/29 10:07:51;;;;;;;1313.38;947.45;;;20.40;73.50;;;;;;6184024;23;20016;-91
2023/07/29 10:10:17;;;;;;;1210.32;936.60;;;20.50;73.20;;;;;;6216634;23;20023;-92
2023/07/29 10:12:43;;;;;;;1163.10;919.13;;;20.50;72.80;;;;;;6186751;23;20019;-91
2023/07/29 10:15:10;;;;;;;1146.60;900.35;;;20.50;72.90;;;;;;6217056;23;20197;-93
2023/07/29 10:17:37;;;;;;;1168.22;935.47;;;20.50;73.20;;;;;;6209367;23;20013;-91
2023/07/29 10:20:07;;;;;;;1098.85;912.05;;;20.50;73.10;;;;;;6192497;23;20082;-92
2023/07/29 10:22:40;;;;;;;1150.20;940.85;;;20.50;73.30;;;;;;6190601;23;20020;-93
2023/07/29 10:25:10;;;;;;;1091.28;920.17;;;20.60;72.90;;;;;;6192083;23;20016;-91
2023/07/29 10:28:06;;;;;;;990.05;882.05;;;20.70;72.50;;;;;;6183776;23;20020;-95
2023/07/29 10:30:33;;;;;;;973.55;868.80;;;20.70;72.30;;;;;;6209559;23;20016;-90
2023/07/29 10:33:02;;;;;;;971.50;860.85;;;20.80;72.10;;;;;;6216072;23;20084;-93
2023/07/29 10:35:34;;;;;;;1010.60;899.60;;;20.80;72.60;;;;;;6191955;23;20031;-92
2023/07/29 10:38:01;;;;;;;998.45;888.55;;;20.90;72.50;;;;;;6186151;23;20028;-91
2023/07/29 10:40:46;;;;;;;986.92;878.05;;;20.90;72.70;;;;;;6192847;23;20099;-93
2023/07/29 10:43:18;;;;;;;992.28;887.33;;;20.90;72.70;;;;;;6216740;23;20047;-93
2023/07/29 10:45:44;;;;;;;968.97;864.90;;;20.80;72.80;;;;;;6217670;23;20335;-93
2023/07/29 10:48:36;;;;;;;984.15;882.20;;;20.70;72.80;;;;;;6184804;23;20020;-92
2023/07/29 10:51:29;;;;;;;783.88;700.17;;;20.70;72.70;;;;;;6193131;23;20020;-93
2023/07/29 10:54:10;;;;;;;912.58;820.13;;;20.60;72.90;;;;;;6216162;23;20016;-95
2023/07/29 10:56:42;;;;;;;931.88;838.58;;;20.50;73.40;;;;;;6188314;23;20091;-94
2023/07/29 10:59:17;;;;;;;951.88;854.25;;;20.50;73.30;;;;;;6188910;23;20027;-93
2023/07/29 11:01:57;;;;;;;958.38;862.55;;;20.40;73.20;;;;;;6217986;23;20020;-91
2023/07/29 11:04:29;;;;;;;799.17;711.83;;;20.30;73.20;;;;;;6191000;23;20027;-93
2023/07/29 11:07:04;;;;;;;934.22;840.75;;;20.20;73.70;;;;;;6211506;23;20022;-92
2023/07/29 11:09:48;;;;;;;953.65;852.35;;;20.10;73.60;;;;;;6215053;23;20016;-88
2023/07/29 11:12:33;;;;;;;971.47;844.20;;;20.00;74.50;;;;;;6193042;23;20086;-90
2023/07/29 11:15:14;;;;;;;1322.88;925.22;;;19.70;75.70;;;;;;6212918;23;20469;-91
2023/07/29 11:17:51;;;;;;;1191.53;864.08;;;18.90;77.90;;;;;;6179618;23;20502;-90
2023/07/29 11:20:22;;;;;;;1251.15;916.50;;;18.20;77.80;;;;;;6187226;23;20024;-88
2023/07/29 11:22:48;;;;;;;931.45;818.85;;;17.80;78.80;;;;;;6186475;23;20016;-90
2023/07/29 11:25:16;;;;;;;911.80;810.95;;;17.50;80.10;;;;;;6211732;23;20339;-89
2023/07/29 11:27:46;;;;;;;887.60;790.70;;;17.50;81.10;;;;;;6178407;23;20028;-88
2023/07/29 11:30:14;;;;;;;1083.53;860.42;;;17.50;81.50;;;;;;6212325;23;20016;-90
2023/07/29 11:32:41;;;;;;;1352.60;844.80;;;17.60;82.20;;;;;;6185619;23;20051;-89
2023/07/29 11:35:17;;;;;;;1514.35;859.85;;;17.80;82.60;;;;;;6187473;23;20086;-89
2023/07/29 11:37:48;;;;;;;1571.38;854.03;;;18.00;83.00;;;;;;6180304;23;20024;-89
2023/07/29 11:40:21;;;;;;;1759.15;864.92;;;18.20;83.20;;;;;;6186690;23;20027;-90
2023/07/29 11:42:52;;;;;;;1617.32;856.55;;;18.40;83.20;;;;;;6186638;23;20016;-89
2023/07/29 11:45:24;;;;;;;988.90;819.13;;;18.60;82.50;;;;;;6212801;23;20063;-90
2023/07/29 11:47:50;;;;;;;1486.93;793.72;;;18.60;81.50;;;;;;6178564;23;20020;-90
2023/07/29 11:50:16;;;;;;;1514.68;809.97;;;18.70;81.30;;;;;;6186729;23;20016;-91
2023/07/29 11:52:45;;;;;;;1613.63;820.88;;;18.80;81.40;;;;;;6185775;23;20017;-90
2023/07/29 11:55:24;;;;;;;1630.25;828.22;;;18.80;80.70;;;;;;6169057;23;20024;-90
2023/07/29 11:57:54;;;;;;;1440.93;792.38;;;18.80;80.80;;;;;;6199102;23;20538;-90
2023/07/29 12:00:38;;;;;;;1438.03;810.50;;;18.80;80.90;;;;;;6187446;23;20103;-91
2023/07/29 12:03:05;;;;;;;1444.65;807.50;;;18.80;80.90;;;;;;6185006;23;20374;-91
2023/07/29 12:05:39;;;;;;;1498.20;817.47;;;18.80;80.20;;;;;;6188061;23;20454;-95
2023/07/29 12:08:05;;;;;;;554.28;515.10;;;18.80;80.00;;;;;;6178782;23;20439;-91
2023/07/29 12:10:32;;;;;;;1458.45;826.00;;;18.80;79.60;;;;;;6186794;23;20106;-88